Mariposa, California
Current Conditions -  °F | °C
As of 11:53 AM on Tuesday 21 Oct 2014 (Local Time) from KMCE Reporting Station
Clear Clear  
Wind Chill: 67°   Ceiling: Unl
Heat Index: 67°   Visibility: 10mi
Dew Point: 44°   Wind: 15mph
Humidity: 44%   Direction: 320°NW
Pressure: 30.05"   Gusts: NA
Location:  37.49°N, 119.97°W
Report Text: KMCE 211853Z AUTO 32013KT 10SM CLR 19/07 A3005 RMK AO2 SLP173 T01940067
Loading
Personal Weather Stations






























Interactive Weather Map
Tropical Storm Tracking
New forecast layout! Learn more

10-Day Weather Forecast

Advertisements
Track Severe Weather on mobile